createdAt,value
2023-04-24T00:04:50.400Z,8.50
2023-04-24T00:15:16.470Z,9.90
2023-04-24T00:25:42.261Z,9.40
2023-04-24T00:36:09.559Z,9.40
2023-04-24T00:46:35.479Z,9.30
2023-04-24T00:57:02.530Z,9.20
2023-04-24T01:07:29.332Z,9.70
2023-04-24T01:17:54.860Z,10.00
2023-04-24T01:28:21.066Z,11.30
2023-04-24T01:38:47.795Z,10.30
2023-04-24T01:49:13.891Z,13.00
2023-04-24T01:59:39.568Z,14.60
2023-04-24T02:10:06.348Z,17.70
2023-04-24T02:20:35.053Z,20.90
2023-04-24T02:31:01.171Z,17.50
2023-04-24T02:41:35.486Z,20.90
2023-04-24T02:52:01.662Z,14.90
2023-04-24T03:02:27.808Z,19.10
2023-04-24T03:12:56.047Z,19.40
2023-04-24T03:23:21.842Z,17.10
2023-04-24T03:33:47.486Z,15.20
2023-04-24T03:44:13.257Z,14.20
2023-04-24T03:54:39.157Z,14.70
2023-04-24T04:05:05.169Z,14.00
2023-04-24T04:15:31.776Z,13.00
2023-04-24T04:25:57.924Z,14.50
2023-04-24T04:36:25.063Z,13.10
2023-04-24T04:46:51.254Z,12.70
2023-04-24T04:57:17.232Z,14.70
2023-04-24T05:07:43.256Z,14.90
2023-04-24T05:18:09.108Z,14.40
2023-04-24T05:28:34.558Z,12.00
2023-04-24T05:39:00.069Z,12.50
2023-04-24T05:49:26.223Z,9.40
2023-04-24T05:59:52.412Z,8.60
2023-04-24T06:10:18.854Z,8.00
2023-04-24T06:20:44.652Z,7.10
2023-04-24T06:31:10.955Z,8.10
2023-04-24T06:41:37.122Z,8.00
2023-04-24T06:52:02.472Z,7.10
2023-04-24T07:02:28.026Z,6.70
2023-04-24T07:12:55.149Z,6.40
2023-04-24T07:23:21.968Z,6.10
2023-04-24T07:33:47.742Z,5.70
2023-04-24T07:44:13.729Z,6.10
2023-04-24T07:54:39.864Z,6.20
2023-04-24T08:05:06.899Z,5.50
2023-04-24T08:15:33.345Z,5.40
2023-04-24T08:25:59.878Z,5.10
2023-04-24T08:36:36.061Z,5.80
2023-04-24T08:47:11.232Z,5.70
2023-04-24T08:57:41.201Z,5.20
2023-04-24T09:08:09.093Z,4.90
2023-04-24T09:18:36.376Z,4.90
2023-04-24T09:29:03.061Z,4.80
2023-04-24T09:39:29.171Z,4.90
2023-04-24T09:50:01.733Z,5.10
2023-04-24T10:00:30.104Z,6.10
2023-04-24T10:10:56.704Z,5.60
2023-04-24T10:21:23.355Z,5.40
2023-04-24T10:31:48.887Z,5.20
2023-04-24T10:42:19.325Z,6.00
2023-04-24T10:52:53.752Z,8.40
2023-04-24T11:03:31.798Z,7.00
2023-04-24T11:14:08.670Z,6.00
2023-04-24T11:24:41.718Z,6.30
2023-04-24T11:35:10.652Z,6.00
2023-04-24T11:45:36.633Z,6.30
2023-04-24T11:56:07.028Z,6.20
2023-04-24T12:06:32.733Z,6.30
2023-04-24T12:16:58.652Z,5.60
2023-04-24T12:27:24.968Z,5.30
2023-04-24T12:37:51.823Z,6.10
2023-04-24T12:48:17.716Z,5.30
2023-04-24T12:58:43.755Z,5.20
2023-04-24T13:09:10.920Z,6.70
2023-04-24T13:19:41.481Z,6.90
2023-04-24T13:30:08.790Z,6.80
2023-04-24T13:40:34.475Z,7.30
2023-04-24T13:51:00.091Z,8.70
2023-04-24T14:01:26.080Z,7.10
2023-04-24T14:11:52.348Z,7.40
2023-04-24T14:22:18.941Z,5.20
2023-04-24T14:32:44.737Z,4.10
2023-04-24T14:43:11.097Z,4.90
2023-04-24T14:53:37.888Z,4.90
2023-04-24T15:04:03.767Z,3.70
2023-04-24T15:14:29.746Z,3.90
2023-04-24T15:24:55.817Z,4.90
2023-04-24T15:35:21.612Z,4.60
2023-04-24T15:45:48.046Z,4.50
2023-04-24T15:56:13.755Z,5.70
2023-04-24T16:06:39.715Z,7.00
2023-04-24T16:17:05.537Z,6.50
2023-04-24T16:27:31.800Z,11.70
2023-04-24T16:37:57.258Z,8.30
2023-04-24T16:48:23.129Z,8.00
2023-04-24T16:58:49.595Z,8.60
2023-04-24T17:09:16.172Z,10.00
2023-04-24T17:19:42.559Z,9.20
2023-04-24T17:30:11.630Z,9.40
2023-04-24T17:40:39.448Z,8.70
2023-04-24T17:51:05.230Z,9.20
2023-04-24T18:01:31.185Z,8.40
2023-04-24T18:11:57.884Z,10.80
2023-04-24T18:22:23.613Z,16.30
2023-04-24T18:32:49.414Z,18.70
2023-04-24T18:43:15.339Z,15.80
2023-04-24T18:53:41.491Z,19.20
2023-04-24T19:04:07.543Z,18.80
2023-04-24T19:14:33.542Z,26.60
2023-04-24T19:25:00.411Z,22.80
2023-04-24T19:35:26.257Z,21.20
2023-04-24T19:45:53.575Z,25.30
2023-04-24T19:56:19.404Z,25.10
2023-04-24T20:06:45.167Z,26.60
2023-04-24T20:17:11.408Z,26.40
2023-04-24T20:27:37.281Z,26.20
2023-04-24T20:38:03.365Z,22.80
2023-04-24T20:48:29.175Z,18.80
2023-04-24T20:58:57.205Z,18.50
2023-04-24T21:09:23.268Z,18.50
2023-04-24T21:19:48.999Z,9.60
2023-04-24T21:30:15.837Z,6.50
2023-04-24T21:40:41.786Z,5.40
2023-04-24T21:51:07.565Z,4.70
2023-04-24T22:01:34.419Z,4.20
2023-04-24T22:12:00.120Z,5.10
2023-04-24T22:22:25.908Z,5.10
2023-04-24T22:32:51.896Z,5.60
2023-04-24T22:43:18.552Z,7.60
2023-04-24T22:53:44.649Z,8.00
2023-04-24T23:04:10.632Z,8.20
2023-04-24T23:14:36.599Z,6.00
2023-04-24T23:25:02.490Z,7.40
2023-04-24T23:35:28.249Z,6.80
2023-04-24T23:45:53.941Z,9.10
2023-04-24T23:56:20.126Z,10.20
